Brighton, United Kingdom
Current Conditions -  °F | °C
As of 6:20 AM on Friday 19 Dec 2014 (Local Time) from EGKK Reporting Station
Light Rain Light Rain  
Wind Chill: 12°   Ceiling: 900
Heat Index: 12°   Visibility: 6mi
Dew Point: 11°   Wind: 12mph
Humidity: 94%   Direction: 230°SW
Pressure: 29.83"   Gusts: NA
Location:  50.83°N, 0.17°W
Report Text: EGKK 190620Z 23010KT 9999 -RA SCT007 BKN009 12/11 Q1010
Loading
Personal Weather Stations






























Interactive Weather Map New forecast layout! Learn more

10-Day Weather Forecast

Advertisements
Track Severe Weather on mobile